sensor_id;sensor_type;location;lat;lon;timestamp;pressure;altitude;pressure_sealevel;temperature;humidity
17785;BME280;9016;53.582;10.062;2024-01-11T00:00:47;103322.03;;;1.76;78.68
17785;BME280;9016;53.582;10.062;2024-01-11T00:03:15;103323.75;;;1.76;78.46
17785;BME280;9016;53.582;10.062;2024-01-11T00:05:43;103321.16;;;1.77;77.72
17785;BME280;9016;53.582;10.062;2024-01-11T00:08:11;103315.72;;;1.65;79.00
17785;BME280;9016;53.582;10.062;2024-01-11T00:10:41;103299.22;;;1.75;78.56
17785;BME280;9016;53.582;10.062;2024-01-11T00:13:09;103307.81;;;1.65;78.65
17785;BME280;9016;53.582;10.062;2024-01-11T00:15:37;103293.00;;;1.70;79.39
17785;BME280;9016;53.582;10.062;2024-01-11T00:18:05;103292.13;;;1.70;77.67
17785;BME280;9016;53.582;10.062;2024-01-11T00:20:33;103287.72;;;1.67;78.62
17785;BME280;9016;53.582;10.062;2024-01-11T00:23:02;103288.78;;;1.80;78.95
17785;BME280;9016;53.582;10.062;2024-01-11T00:25:30;103274.78;;;1.81;78.46
17785;BME280;9016;53.582;10.062;2024-01-11T00:27:59;103276.59;;;1.85;78.20
17785;BME280;9016;53.582;10.062;2024-01-11T00:30:28;103266.88;;;1.79;78.87
17785;BME280;9016;53.582;10.062;2024-01-11T00:32:56;103273.91;;;1.79;78.12
17785;BME280;9016;53.582;10.062;2024-01-11T00:35:24;103261.56;;;1.75;79.35
17785;BME280;9016;53.582;10.062;2024-01-11T00:37:52;103263.38;;;1.79;78.73
17785;BME280;9016;53.582;10.062;2024-01-11T00:40:20;103273.06;;;1.83;78.89
17785;BME280;9016;53.582;10.062;2024-01-11T00:42:48;103260.84;;;1.86;78.38
17785;BME280;9016;53.582;10.062;2024-01-11T00:45:18;103249.31;;;1.77;78.97
17785;BME280;9016;53.582;10.062;2024-01-11T00:47:46;103252.03;;;1.83;78.29
17785;BME280;9016;53.582;10.062;2024-01-11T00:50:14;103268.59;;;1.77;77.21
17785;BME280;9016;53.582;10.062;2024-01-11T00:52:42;103255.31;;;1.70;79.46
17785;BME280;9016;53.582;10.062;2024-01-11T00:55:10;103250.16;;;1.74;78.86
17785;BME280;9016;53.582;10.062;2024-01-11T00:57:38;103239.63;;;1.74;78.21
17785;BME280;9016;53.582;10.062;2024-01-11T01:00:07;103235.94;;;1.62;78.50
17785;BME280;9016;53.582;10.062;2024-01-11T01:02:39;103224.53;;;1.61;79.45
17785;BME280;9016;53.582;10.062;2024-01-11T01:05:08;103220.31;;;1.71;79.46
17785;BME280;9016;53.582;10.062;2024-01-11T01:07:36;103228.97;;;1.65;79.77
17785;BME280;9016;53.582;10.062;2024-01-11T01:10:05;103233.44;;;1.69;78.94
17785;BME280;9016;53.582;10.062;2024-01-11T01:12:33;103228.13;;;1.68;79.79
17785;BME280;9016;53.582;10.062;2024-01-11T01:15:01;103211.66;;;1.79;79.15
17785;BME280;9016;53.582;10.062;2024-01-11T01:17:29;103207.19;;;1.72;78.89
17785;BME280;9016;53.582;10.062;2024-01-11T01:19:59;103223.94;;;1.79;78.78
17785;BME280;9016;53.582;10.062;2024-01-11T01:22:27;103207.09;;;1.66;78.23
17785;BME280;9016;53.582;10.062;2024-01-11T01:24:55;103212.44;;;1.71;79.06
17785;BME280;9016;53.582;10.062;2024-01-11T01:27:23;103206.00;;;1.52;79.03
17785;BME280;9016;53.582;10.062;2024-01-11T01:29:52;103212.06;;;1.50;79.77
17785;BME280;9016;53.582;10.062;2024-01-11T01:32:20;103229.66;;;1.54;80.44
17785;BME280;9016;53.582;10.062;2024-01-11T01:34:49;103230.72;;;1.65;80.41
17785;BME280;9016;53.582;10.062;2024-01-11T01:37:18;103221.09;;;1.64;79.87
17785;BME280;9016;53.582;10.062;2024-01-11T01:39:46;103221.22;;;1.73;78.99
17785;BME280;9016;53.582;10.062;2024-01-11T01:42:14;103218.63;;;1.74;78.52
17785;BME280;9016;53.582;10.062;2024-01-11T01:44:42;103209.56;;;1.56;78.29
17785;BME280;9016;53.582;10.062;2024-01-11T01:47:10;103201.34;;;1.36;80.26
17785;BME280;9016;53.582;10.062;2024-01-11T01:49:39;103209.31;;;1.42;81.23
17785;BME280;9016;53.582;10.062;2024-01-11T01:52:07;103219.16;;;1.54;80.51
17785;BME280;9016;53.582;10.062;2024-01-11T01:54:37;103216.38;;;1.45;81.37
17785;BME280;9016;53.582;10.062;2024-01-11T01:57:05;103213.97;;;1.58;80.13
17785;BME280;9016;53.582;10.062;2024-01-11T01:59:35;103235.63;;;1.44;79.97
17785;BME280;9016;53.582;10.062;2024-01-11T02:02:05;103254.72;;;1.34;80.97
17785;BME280;9016;53.582;10.062;2024-01-11T02:04:33;103263.41;;;1.31;81.72
17785;BME280;9016;53.582;10.062;2024-01-11T02:07:02;103261.69;;;1.33;80.79
17785;BME280;9016;53.582;10.062;2024-01-11T02:09:30;103269.53;;;1.30;81.55
17785;BME280;9016;53.582;10.062;2024-01-11T02:12:00;103254.50;;;1.22;80.70
17785;BME280;9016;53.582;10.062;2024-01-11T02:14:28;103247.56;;;1.25;81.83
17785;BME280;9016;53.582;10.062;2024-01-11T02:16:57;103261.84;;;1.41;81.84
17785;BME280;9016;53.582;10.062;2024-01-11T02:19:25;103262.69;;;1.38;81.09
17785;BME280;9016;53.582;10.062;2024-01-11T02:21:54;103252.97;;;1.33;81.11
17785;BME280;9016;53.582;10.062;2024-01-11T02:24:23;103260.16;;;1.46;81.56
17785;BME280;9016;53.582;10.062;2024-01-11T02:26:58;103262.88;;;1.49;81.82
17785;BME280;9016;53.582;10.062;2024-01-11T02:29:28;103248.81;;;1.47;81.02
17785;BME280;9016;53.582;10.062;2024-01-11T02:31:56;103271.69;;;1.54;81.19
17785;BME280;9016;53.582;10.062;2024-01-11T02:34:26;103283.72;;;1.40;80.75
17785;BME280;9016;53.582;10.062;2024-01-11T02:36:55;103276.69;;;1.40;80.82
17785;BME280;9016;53.582;10.062;2024-01-11T02:39:25;103283.94;;;1.52;81.06
17785;BME280;9016;53.582;10.062;2024-01-11T02:41:56;103275.16;;;1.51;79.96
17785;BME280;9016;53.582;10.062;2024-01-11T02:44:24;103272.53;;;1.51;80.55
17785;BME280;9016;53.582;10.062;2024-01-11T02:46:52;103254.91;;;1.46;80.39
17785;BME280;9016;53.582;10.062;2024-01-11T02:49:20;103255.13;;;1.56;80.99
17785;BME280;9016;53.582;10.062;2024-01-11T02:51:48;103266.53;;;1.58;80.99
17785;BME280;9016;53.582;10.062;2024-01-11T02:54:16;103262.00;;;1.50;81.19
17785;BME280;9016;53.582;10.062;2024-01-11T02:56:46;103261.16;;;1.51;80.47
17785;BME280;9016;53.582;10.062;2024-01-11T02:59:14;103262.59;;;1.34;80.13
17785;BME280;9016;53.582;10.062;2024-01-11T03:01:42;103259.09;;;1.35;81.12
17785;BME280;9016;53.582;10.062;2024-01-11T03:04:10;103257.25;;;1.29;81.46
17785;BME280;9016;53.582;10.062;2024-01-11T03:06:38;103251.03;;;1.24;82.16
17785;BME280;9016;53.582;10.062;2024-01-11T03:09:06;103245.75;;;1.23;82.16
17785;BME280;9016;53.582;10.062;2024-01-11T03:11:34;103251.97;;;1.28;82.17
17785;BME280;9016;53.582;10.062;2024-01-11T03:14:05;103263.38;;;1.28;81.20
17785;BME280;9016;53.582;10.062;2024-01-11T03:16:34;103262.38;;;1.22;81.71
17785;BME280;9016;53.582;10.062;2024-01-11T03:19:01;103264.00;;;1.15;82.22
17785;BME280;9016;53.582;10.062;2024-01-11T03:21:30;103249.25;;;1.22;82.25
17785;BME280;9016;53.582;10.062;2024-01-11T03:23:58;103243.28;;;1.32;82.81
17785;BME280;9016;53.582;10.062;2024-01-11T03:26:26;103237.28;;;1.39;81.68
17785;BME280;9016;53.582;10.062;2024-01-11T03:28:54;103250.41;;;1.39;81.38
17785;BME280;9016;53.582;10.062;2024-01-11T03:31:23;103251.88;;;1.22;81.28
17785;BME280;9016;53.582;10.062;2024-01-11T03:33:52;103260.84;;;1.34;82.92
17785;BME280;9016;53.582;10.062;2024-01-11T03:36:23;103249.31;;;1.25;82.75
17785;BME280;9016;53.582;10.062;2024-01-11T03:38:51;103246.63;;;1.22;83.37
17785;BME280;9016;53.582;10.062;2024-01-11T03:41:19;103266.00;;;1.28;82.50
17785;BME280;9016;53.582;10.062;2024-01-11T03:43:47;103269.69;;;1.38;82.52
17785;BME280;9016;53.582;10.062;2024-01-11T03:46:15;103280.03;;;1.30;81.43
17785;BME280;9016;53.582;10.062;2024-01-11T03:48:44;103275.38;;;1.14;82.95
17785;BME280;9016;53.582;10.062;2024-01-11T03:51:13;103286.97;;;1.25;84.01
17785;BME280;9016;53.582;10.062;2024-01-11T03:53:41;103278.41;;;1.37;83.12
17785;BME280;9016;53.582;10.062;2024-01-11T03:56:09;103274.00;;;1.34;82.05
17785;BME280;9016;53.582;10.062;2024-01-11T03:58:37;103267.72;;;1.28;82.58
17785;BME280;9016;53.582;10.062;2024-01-11T04:01:08;103256.94;;;1.13;82.69
17785;BME280;9016;53.582;10.062;2024-01-11T04:03:37;103243.75;;;1.10;83.97
17785;BME280;9016;53.582;10.062;2024-01-11T04:06:07;103229.03;;;1.16;83.92
17785;BME280;9016;53.582;10.062;2024-01-11T04:08:35;103224.88;;;1.30;83.93
17785;BME280;9016;53.582;10.062;2024-01-11T04:11:04;103218.22;;;1.50;83.16
17785;BME280;9016;53.582;10.062;2024-01-11T04:13:32;103214.78;;;1.54;81.36
17785;BME280;9016;53.582;10.062;2024-01-11T04:16:04;103206.81;;;1.50;81.51
17785;BME280;9016;53.582;10.062;2024-01-11T04:18:32;103206.03;;;1.55;81.52
17785;BME280;9016;53.582;10.062;2024-01-11T04:21:00;103212.19;;;1.56;79.90
17785;BME280;9016;53.582;10.062;2024-01-11T04:23:29;103213.63;;;1.39;80.16
17785;BME280;9016;53.582;10.062;2024-01-11T04:25:58;103184.28;;;1.12;81.42
17785;BME280;9016;53.582;10.062;2024-01-11T04:28:26;103194.06;;;1.20;81.84
17785;BME280;9016;53.582;10.062;2024-01-11T04:30:54;103200.81;;;1.06;81.25
17785;BME280;9016;53.582;10.062;2024-01-11T04:33:23;103194.84;;;1.15;82.11
17785;BME280;9016;53.582;10.062;2024-01-11T04:35:51;103171.44;;;1.27;83.14
17785;BME280;9016;53.582;10.062;2024-01-11T04:38:19;103156.84;;;1.45;81.99
17785;BME280;9016;53.582;10.062;2024-01-11T04:40:49;103173.44;;;1.44;81.59
17785;BME280;9016;53.582;10.062;2024-01-11T04:43:17;103183.78;;;1.32;81.12
17785;BME280;9016;53.582;10.062;2024-01-11T04:45:45;103176.88;;;1.39;82.03
17785;BME280;9016;53.582;10.062;2024-01-11T04:48:13;103180.63;;;1.54;80.84
17785;BME280;9016;53.582;10.062;2024-01-11T04:50:41;103164.88;;;1.56;80.37
17785;BME280;9016;53.582;10.062;2024-01-11T04:53:10;103156.88;;;1.47;79.68
17785;BME280;9016;53.582;10.062;2024-01-11T04:55:38;103167.28;;;1.41;78.87
17785;BME280;9016;53.582;10.062;2024-01-11T04:58:07;103172.53;;;1.42;80.34
17785;BME280;9016;53.582;10.062;2024-01-11T05:00:35;103183.25;;;1.54;79.89
17785;BME280;9016;53.582;10.062;2024-01-11T05:03:03;103206.13;;;1.61;80.14
17785;BME280;9016;53.582;10.062;2024-01-11T05:05:31;103210.56;;;1.64;79.44
17785;BME280;9016;53.582;10.062;2024-01-11T05:08:00;103200.88;;;1.61;78.81
17785;BME280;9016;53.582;10.062;2024-01-11T05:10:28;103197.22;;;1.52;80.30
17785;BME280;9016;53.582;10.062;2024-01-11T05:12:56;103180.50;;;1.47;80.88
17785;BME280;9016;53.582;10.062;2024-01-11T05:15:25;103177.75;;;1.39;80.81
17785;BME280;9016;53.582;10.062;2024-01-11T05:17:55;103175.25;;;1.47;80.46
17785;BME280;9016;53.582;10.062;2024-01-11T05:20:23;103168.28;;;1.49;79.97
17785;BME280;9016;53.582;10.062;2024-01-11T05:22:51;103182.41;;;1.57;80.45
17785;BME280;9016;53.582;10.062;2024-01-11T05:25:19;103188.66;;;1.63;80.05
17785;BME280;9016;53.582;10.062;2024-01-11T05:27:47;103177.06;;;1.51;79.65
17785;BME280;9016;53.582;10.062;2024-01-11T05:30:15;103190.09;;;1.45;79.96
17785;BME280;9016;53.582;10.062;2024-01-11T05:32:45;103210.84;;;1.30;80.86
17785;BME280;9016;53.582;10.062;2024-01-11T05:35:13;103208.13;;;1.24;81.38
17785;BME280;9016;53.582;10.062;2024-01-11T05:37:41;103215.44;;;1.41;81.74
17785;BME280;9016;53.582;10.062;2024-01-11T05:40:09;103205.97;;;1.49;81.87
17785;BME280;9016;53.582;10.062;2024-01-11T05:42:37;103201.78;;;1.62;81.31
17785;BME280;9016;53.582;10.062;2024-01-11T05:45:06;103194.69;;;1.56;79.67
17785;BME280;9016;53.582;10.062;2024-01-11T05:47:34;103198.78;;;1.39;80.26
17785;BME280;9016;53.582;10.062;2024-01-11T05:50:04;103177.75;;;1.39;82.04
17785;BME280;9016;53.582;10.062;2024-01-11T05:52:33;103183.16;;;1.50;81.49
17785;BME280;9016;53.582;10.062;2024-01-11T05:55:01;103166.59;;;1.54;81.97
17785;BME280;9016;53.582;10.062;2024-01-11T05:57:28;103178.84;;;1.53;81.14
17785;BME280;9016;53.582;10.062;2024-01-11T05:59:56;103172.75;;;1.53;81.51
17785;BME280;9016;53.582;10.062;2024-01-11T06:02:24;103163.97;;;1.54;80.68
17785;BME280;9016;53.582;10.062;2024-01-11T06:04:52;103152.88;;;1.71;81.88
17785;BME280;9016;53.582;10.062;2024-01-11T06:07:22;103156.50;;;1.81;81.38
17785;BME280;9016;53.582;10.062;2024-01-11T06:09:50;103166.09;;;1.77;80.35
17785;BME280;9016;53.582;10.062;2024-01-11T06:12:18;103161.44;;;1.58;81.17
17785;BME280;9016;53.582;10.062;2024-01-11T06:14:46;103156.25;;;1.64;82.01
17785;BME280;9016;53.582;10.062;2024-01-11T06:17:14;103158.16;;;1.74;81.15
17785;BME280;9016;53.582;10.062;2024-01-11T06:19:42;103163.50;;;1.80;81.17
17785;BME280;9016;53.582;10.062;2024-01-11T06:22:10;103173.94;;;1.76;80.24
17785;BME280;9016;53.582;10.062;2024-01-11T06:24:39;103178.28;;;1.72;81.08
17785;BME280;9016;53.582;10.062;2024-01-11T06:27:07;103172.09;;;1.69;81.17
17785;BME280;9016;53.582;10.062;2024-01-11T06:29:35;103182.47;;;1.60;81.63
17785;BME280;9016;53.582;10.062;2024-01-11T06:32:04;103179.69;;;1.49;82.41
17785;BME280;9016;53.582;10.062;2024-01-11T06:34:32;103166.72;;;1.60;82.40
17785;BME280;9016;53.582;10.062;2024-01-11T06:37:00;103171.09;;;1.61;82.84
17785;BME280;9016;53.582;10.062;2024-01-11T06:39:29;103171.09;;;1.62;82.58
17785;BME280;9016;53.582;10.062;2024-01-11T06:41:59;103171.31;;;1.74;82.49
17785;BME280;9016;53.582;10.062;2024-01-11T06:44:26;103177.47;;;1.78;82.32
17785;BME280;9016;53.582;10.062;2024-01-11T06:46:54;103185.63;;;1.94;82.68
17785;BME280;9016;53.582;10.062;2024-01-11T06:49:22;103180.38;;;1.97;81.07
17785;BME280;9016;53.582;10.062;2024-01-11T06:51:51;103175.91;;;1.89;82.63
17785;BME280;9016;53.582;10.062;2024-01-11T06:54:18;103183.06;;;2.00;82.36
17785;BME280;9016;53.582;10.062;2024-01-11T06:56:46;103182.28;;;2.06;82.11
17785;BME280;9016;53.582;10.062;2024-01-11T06:59:16;103180.22;;;1.85;80.20
17785;BME280;9016;53.582;10.062;2024-01-11T07:01:45;103177.53;;;1.81;82.75
17785;BME280;9016;53.582;10.062;2024-01-11T07:04:13;103184.72;;;1.94;82.84
17785;BME280;9016;53.582;10.062;2024-01-11T07:06:41;103179.47;;;1.94;82.15
17785;BME280;9016;53.582;10.062;2024-01-11T07:09:10;103179.63;;;2.05;83.39
17785;BME280;9016;53.582;10.062;2024-01-11T07:11:37;103191.06;;;2.07;82.37
17785;BME280;9016;53.582;10.062;2024-01-11T07:14:06;103195.41;;;2.05;81.89
17785;BME280;9016;53.582;10.062;2024-01-11T07:16:35;103204.16;;;2.05;81.83
17785;BME280;9016;53.582;10.062;2024-01-11T07:19:03;103199.00;;;2.11;82.73
17785;BME280;9016;53.582;10.062;2024-01-11T07:21:31;103201.63;;;2.13;82.56
17785;BME280;9016;53.582;10.062;2024-01-11T07:23:59;103199.09;;;2.19;82.92
17785;BME280;9016;53.582;10.062;2024-01-11T07:26:27;103197.47;;;2.28;81.65
17785;BME280;9016;53.582;10.062;2024-01-11T07:28:55;103189.47;;;2.19;81.36
17785;BME280;9016;53.582;10.062;2024-01-11T07:31:23;103193.03;;;2.24;82.43
17785;BME280;9016;53.582;10.062;2024-01-11T07:33:53;103204.28;;;2.14;83.48
17785;BME280;9016;53.582;10.062;2024-01-11T07:36:21;103203.56;;;2.26;83.90
17785;BME280;9016;53.582;10.062;2024-01-11T07:38:49;103215.19;;;2.41;83.34
17785;BME280;9016;53.582;10.062;2024-01-11T07:41:17;103202.03;;;2.40;81.92
17785;BME280;9016;53.582;10.062;2024-01-11T07:43:45;103196.78;;;2.43;82.51
17785;BME280;9016;53.582;10.062;2024-01-11T07:46:20;103200.31;;;2.43;82.46
17785;BME280;9016;53.582;10.062;2024-01-11T07:49:03;103204.69;;;2.43;82.41
17785;BME280;9016;53.582;10.062;2024-01-11T07:51:33;103207.34;;;2.46;82.72
17785;BME280;9016;53.582;10.062;2024-01-11T07:54:01;103209.94;;;2.43;82.20
17785;BME280;9016;53.582;10.062;2024-01-11T07:56:29;103211.56;;;2.35;82.64
17785;BME280;9016;53.582;10.062;2024-01-11T07:58:57;103216.94;;;2.41;83.80
17785;BME280;9016;53.582;10.062;2024-01-11T08:01:25;103217.72;;;2.35;83.23
17785;BME280;9016;53.582;10.062;2024-01-11T08:03:53;103200.41;;;2.51;83.44
17785;BME280;9016;53.582;10.062;2024-01-11T08:06:23;103211.06;;;2.63;83.86
17785;BME280;9016;53.582;10.062;2024-01-11T08:08:51;103212.06;;;2.72;83.10
17785;BME280;9016;53.582;10.062;2024-01-11T08:11:20;103206.00;;;2.82;82.71
17785;BME280;9016;53.582;10.062;2024-01-11T08:13:51;103196.44;;;2.87;81.57
17785;BME280;9016;53.582;10.062;2024-01-11T08:16:21;103190.13;;;2.73;81.63
17785;BME280;9016;53.582;10.062;2024-01-11T08:18:50;103180.63;;;2.87;82.26
17785;BME280;9016;53.582;10.062;2024-01-11T08:21:18;103183.28;;;2.92;80.95
17785;BME280;9016;53.582;10.062;2024-01-11T08:23:47;103193.00;;;2.99;82.45
17785;BME280;9016;53.582;10.062;2024-01-11T08:26:16;103187.88;;;3.10;80.59
17785;BME280;9016;53.582;10.062;2024-01-11T08:28:45;103182.56;;;3.05;80.85
17785;BME280;9016;53.582;10.062;2024-01-11T08:31:13;103175.41;;;2.93;80.98
17785;BME280;9016;53.582;10.062;2024-01-11T08:33:41;103184.34;;;3.09;81.17
17785;BME280;9016;53.582;10.062;2024-01-11T08:36:09;103185.34;;;3.20;80.47
17785;BME280;9016;53.582;10.062;2024-01-11T08:38:38;103184.44;;;3.20;80.22
17785;BME280;9016;53.582;10.062;2024-01-11T08:41:08;103187.13;;;3.24;79.78
17785;BME280;9016;53.582;10.062;2024-01-11T08:43:36;103184.50;;;3.29;80.15
17785;BME280;9016;53.582;10.062;2024-01-11T08:46:05;103185.50;;;3.41;79.48
17785;BME280;9016;53.582;10.062;2024-01-11T08:48:33;103183.81;;;3.46;79.45
17785;BME280;9016;53.582;10.062;2024-01-11T08:51:02;103178.41;;;3.34;79.92
17785;BME280;9016;53.582;10.062;2024-01-11T08:53:30;103176.69;;;3.38;80.64
17785;BME280;9016;53.582;10.062;2024-01-11T08:55:58;103176.72;;;3.39;78.86
17785;BME280;9016;53.582;10.062;2024-01-11T08:58:27;103175.00;;;3.46;79.62
17785;BME280;9016;53.582;10.062;2024-01-11T09:00:55;103172.44;;;3.55;79.08
17785;BME280;9016;53.582;10.062;2024-01-11T09:03:24;103169.75;;;3.49;78.44
17785;BME280;9016;53.582;10.062;2024-01-11T09:05:52;103153.16;;;3.60;79.63
17785;BME280;9016;53.582;10.062;2024-01-11T09:08:23;103154.09;;;3.70;79.36
17785;BME280;9016;53.582;10.062;2024-01-11T09:10:52;103162.06;;;3.77;78.80
17785;BME280;9016;53.582;10.062;2024-01-11T09:13:20;103169.13;;;3.81;78.33
17785;BME280;9016;53.582;10.062;2024-01-11T09:15:50;103165.63;;;3.90;78.14
17785;BME280;9016;53.582;10.062;2024-01-11T09:18:18;103163.91;;;3.95;78.66
17785;BME280;9016;53.582;10.062;2024-01-11T09:20:46;103152.50;;;3.96;78.47
17785;BME280;9016;53.582;10.062;2024-01-11T09:23:16;103158.63;;;3.95;77.86
17785;BME280;9016;53.582;10.062;2024-01-11T09:25:45;103143.69;;;3.98;77.71
17785;BME280;9016;53.582;10.062;2024-01-11T09:28:13;103144.66;;;4.11;78.28
17785;BME280;9016;53.582;10.062;2024-01-11T09:30:42;103147.31;;;4.13;77.71
17785;BME280;9016;53.582;10.062;2024-01-11T09:33:11;103152.63;;;4.22;78.38
17785;BME280;9016;53.582;10.062;2024-01-11T09:35:39;103150.88;;;4.27;78.21
17785;BME280;9016;53.582;10.062;2024-01-11T09:38:07;103154.41;;;4.24;77.51
17785;BME280;9016;53.582;10.062;2024-01-11T09:40:35;103148.22;;;4.28;77.60
17785;BME280;9016;53.582;10.062;2024-01-11T09:43:04;103137.72;;;4.30;78.27
17785;BME280;9016;53.582;10.062;2024-01-11T09:45:34;103136.78;;;4.26;77.61
17785;BME280;9016;53.582;10.062;2024-01-11T09:48:06;103148.25;;;4.30;77.81
17785;BME280;9016;53.582;10.062;2024-01-11T09:50:36;103130.69;;;4.36;77.18
17785;BME280;9016;53.582;10.062;2024-01-11T09:53:07;103132.47;;;4.43;77.43
17785;BME280;9016;53.582;10.062;2024-01-11T09:55:35;103136.00;;;4.51;77.52
17785;BME280;9016;53.582;10.062;2024-01-11T09:58:04;103143.94;;;4.53;77.68
17785;BME280;9016;53.582;10.062;2024-01-11T10:00:34;103130.75;;;4.62;77.05
17785;BME280;9016;53.582;10.062;2024-01-11T10:03:03;103129.00;;;4.67;77.04
17785;BME280;9016;53.582;10.062;2024-01-11T10:05:33;103129.88;;;4.70;76.44
17785;BME280;9016;53.582;10.062;2024-01-11T10:08:03;103124.59;;;4.67;77.36
17785;BME280;9016;53.582;10.062;2024-01-11T10:10:32;103129.88;;;4.60;77.00
17785;BME280;9016;53.582;10.062;2024-01-11T10:13:00;103119.31;;;4.67;77.44
17785;BME280;9016;53.582;10.062;2024-01-11T10:15:28;103130.78;;;4.69;77.14
17785;BME280;9016;53.582;10.062;2024-01-11T10:17:56;103107.88;;;4.71;76.88
17785;BME280;9016;53.582;10.062;2024-01-11T10:20:24;103116.63;;;4.51;77.21
17785;BME280;9016;53.582;10.062;2024-01-11T10:22:54;103120.19;;;4.50;77.77
17785;BME280;9016;53.582;10.062;2024-01-11T10:25:24;103116.63;;;4.54;77.39
17785;BME280;9016;53.582;10.062;2024-01-11T10:27:52;103113.97;;;4.39;77.57
17785;BME280;9016;53.582;10.062;2024-01-11T10:30:19;103111.38;;;4.49;78.57
17785;BME280;9016;53.582;10.062;2024-01-11T10:32:50;103121.06;;;4.59;78.80
17785;BME280;9016;53.582;10.062;2024-01-11T10:35:18;103128.13;;;4.69;77.98
17785;BME280;9016;53.582;10.062;2024-01-11T10:37:50;103127.25;;;4.76;78.22
17785;BME280;9016;53.582;10.062;2024-01-11T10:40:20;103138.69;;;4.81;77.91
17785;BME280;9016;53.582;10.062;2024-01-11T10:42:53;103145.75;;;4.87;77.86
17785;BME280;9016;53.582;10.062;2024-01-11T10:45:25;103149.28;;;4.87;77.45
17785;BME280;9016;53.582;10.062;2024-01-11T10:47:55;103158.09;;;4.91;77.36
17785;BME280;9016;53.582;10.062;2024-01-11T10:50:30;103174.84;;;4.91;77.97
17785;BME280;9016;53.582;10.062;2024-01-11T10:53:03;103173.97;;;4.95;77.86
17785;BME280;9016;53.582;10.062;2024-01-11T10:55:33;103175.72;;;4.98;77.80
17785;BME280;9016;53.582;10.062;2024-01-11T10:58:03;103175.72;;;4.96;76.96
17785;BME280;9016;53.582;10.062;2024-01-11T11:00:31;103170.44;;;5.05;77.65
17785;BME280;9016;53.582;10.062;2024-01-11T11:03:03;103163.41;;;5.09;77.14
17785;BME280;9016;53.582;10.062;2024-01-11T11:05:34;103162.50;;;5.05;77.12
17785;BME280;9016;53.582;10.062;2024-01-11T11:08:04;103169.56;;;5.10;77.90
17785;BME280;9016;53.582;10.062;2024-01-11T11:10:33;103162.50;;;4.96;77.48
17785;BME280;9016;53.582;10.062;2024-01-11T11:13:03;103176.63;;;5.04;77.80
17785;BME280;9016;53.582;10.062;2024-01-11T11:15:33;103166.91;;;4.94;77.61
17785;BME280;9016;53.582;10.062;2024-01-11T11:18:03;103152.81;;;4.79;78.40
17785;BME280;9016;53.582;10.062;2024-01-11T11:20:34;103137.81;;;4.64;79.65
17785;BME280;9016;53.582;10.062;2024-01-11T11:23:05;103124.63;;;4.76;79.76
17785;BME280;9016;53.582;10.062;2024-01-11T11:25:34;103128.16;;;4.89;79.19
17785;BME280;9016;53.582;10.062;2024-01-11T11:28:04;103118.50;;;4.94;79.44
17785;BME280;9016;53.582;10.062;2024-01-11T11:30:33;103121.09;;;4.83;77.63
17785;BME280;9016;53.582;10.062;2024-01-11T11:33:09;103126.38;;;4.80;77.75
17785;BME280;9016;53.582;10.062;2024-01-11T11:35:38;103125.50;;;4.87;79.44
17785;BME280;9016;53.582;10.062;2024-01-11T11:38:06;103114.94;;;4.87;79.28
17785;BME280;9016;53.582;10.062;2024-01-11T11:40:36;103117.59;;;4.84;78.81
17785;BME280;9016;53.582;10.062;2024-01-11T11:43:08;103117.56;;;4.80;79.97
17785;BME280;9016;53.582;10.062;2024-01-11T11:45:37;103126.41;;;4.85;79.19
17785;BME280;9016;53.582;10.062;2024-01-11T11:51:08;103126.41;;;4.89;78.91
17785;BME280;9016;53.582;10.062;2024-01-11T11:53:37;103123.75;;;4.80;79.85
17785;BME280;9016;53.582;10.062;2024-01-11T11:56:07;103118.47;;;4.89;80.35
17785;BME280;9016;53.582;10.062;2024-01-11T11:58:38;103107.91;;;4.91;79.62
17785;BME280;9016;53.582;10.062;2024-01-11T12:01:06;103103.53;;;4.97;79.61
17785;BME280;9016;53.582;10.062;2024-01-11T12:03:37;103102.66;;;5.11;80.51
17785;BME280;9016;53.582;10.062;2024-01-11T12:06:07;103093.84;;;4.99;80.21
17785;BME280;9016;53.582;10.062;2024-01-11T12:08:36;103092.94;;;5.08;80.08
17785;BME280;9016;53.582;10.062;2024-01-11T12:11:04;103085.00;;;5.10;79.86
17785;BME280;9016;53.582;10.062;2024-01-11T12:13:35;103079.72;;;5.11;80.02
17785;BME280;9016;53.582;10.062;2024-01-11T12:16:05;103083.25;;;5.12;79.27
17785;BME280;9016;53.582;10.062;2024-01-11T12:18:33;103081.50;;;5.04;79.81
17785;BME280;9016;53.582;10.062;2024-01-11T12:21:01;103080.63;;;5.09;80.40
17785;BME280;9016;53.582;10.062;2024-01-11T12:23:29;103066.53;;;4.99;79.18
17785;BME280;9016;53.582;10.062;2024-01-11T12:25:58;103068.28;;;4.88;79.80
17785;BME280;9016;53.582;10.062;2024-01-11T12:28:26;103058.59;;;4.91;80.79
17785;BME280;9016;53.582;10.062;2024-01-11T12:30:54;103049.78;;;4.88;81.20
17785;BME280;9016;53.582;10.062;2024-01-11T12:33:25;103057.72;;;4.86;80.95
17785;BME280;9016;53.582;10.062;2024-01-11T12:35:53;103057.72;;;4.86;80.80
17785;BME280;9016;53.582;10.062;2024-01-11T12:38:21;103060.38;;;5.01;81.03
17785;BME280;9016;53.582;10.062;2024-01-11T12:40:49;103072.69;;;5.15;80.26
17785;BME280;9016;53.582;10.062;2024-01-11T12:43:17;103073.56;;;5.18;79.49
17785;BME280;9016;53.582;10.062;2024-01-11T12:45:46;103066.53;;;5.14;80.55
17785;BME280;9016;53.582;10.062;2024-01-11T12:48:15;103062.97;;;5.17;80.33
17785;BME280;9016;53.582;10.062;2024-01-11T12:50:47;103066.50;;;5.19;79.61
17785;BME280;9016;53.582;10.062;2024-01-11T12:53:15;103065.63;;;5.14;80.65
17785;BME280;9016;53.582;10.062;2024-01-11T12:55:46;103070.91;;;5.27;80.03
17785;BME280;9016;53.582;10.062;2024-01-11T12:58:23;103065.63;;;5.29;79.03
17785;BME280;9016;53.582;10.062;2024-01-11T13:00:53;103061.22;;;5.11;78.89
17785;BME280;9016;53.582;10.062;2024-01-11T13:03:21;103064.75;;;5.18;80.57
17785;BME280;9016;53.582;10.062;2024-01-11T13:05:51;103062.13;;;5.15;80.14
17785;BME280;9016;53.582;10.062;2024-01-11T13:08:19;103052.41;;;5.21;80.06
17785;BME280;9016;53.582;10.062;2024-01-11T13:10:47;103052.41;;;5.30;80.26